createdAt,value
2018-05-21T00:01:45.716Z,3.23
2018-05-21T00:04:13.238Z,2.60
2018-05-21T00:06:40.701Z,2.33
2018-05-21T00:09:08.152Z,2.80
2018-05-21T00:11:35.653Z,2.10
2018-05-21T00:14:03.103Z,2.40
2018-05-21T00:16:30.557Z,3.20
2018-05-21T00:18:58.042Z,2.90
2018-05-21T00:21:25.493Z,2.70
2018-05-21T00:23:52.951Z,2.27
2018-05-21T00:26:20.411Z,3.37
2018-05-21T00:28:47.992Z,2.90
2018-05-21T00:31:15.457Z,2.30
2018-05-21T00:33:43.684Z,1.93
2018-05-21T00:36:11.180Z,2.47
2018-05-21T00:38:38.737Z,3.20
2018-05-21T00:41:07.007Z,2.60
2018-05-21T00:43:34.568Z,2.33
2018-05-21T00:46:02.016Z,3.67
2018-05-21T00:48:29.495Z,2.53
2018-05-21T00:50:56.972Z,2.83
2018-05-21T00:53:24.439Z,3.27
2018-05-21T00:55:51.920Z,3.77
2018-05-21T00:58:19.380Z,2.90
2018-05-21T01:00:46.876Z,2.40
2018-05-21T01:03:14.337Z,2.93
2018-05-21T01:05:41.796Z,2.60
2018-05-21T01:08:10.052Z,3.30
2018-05-21T01:10:37.537Z,3.00
2018-05-21T01:13:05.767Z,2.53
2018-05-21T01:15:33.255Z,3.10
2018-05-21T01:18:00.709Z,3.00
2018-05-21T01:20:28.188Z,2.83
2018-05-21T01:22:56.412Z,2.93
2018-05-21T01:25:23.923Z,2.67
2018-05-21T01:27:52.154Z,3.10
2018-05-21T01:30:19.648Z,3.07
2018-05-21T01:32:47.105Z,3.17
2018-05-21T01:35:14.569Z,2.60
2018-05-21T01:37:42.043Z,2.80
2018-05-21T01:40:10.383Z,2.70
2018-05-21T01:42:38.553Z,3.50
2018-05-21T01:45:06.009Z,3.90
2018-05-21T01:47:33.488Z,2.50
2018-05-21T01:50:00.935Z,3.50
2018-05-21T01:52:28.418Z,2.70
2018-05-21T01:54:56.653Z,2.73
2018-05-21T01:57:24.150Z,3.13
2018-05-21T01:59:51.884Z,2.53
2018-05-21T02:02:19.380Z,3.27
2018-05-21T02:04:46.831Z,3.13
2018-05-21T02:07:14.287Z,2.33
2018-05-21T02:09:41.761Z,2.83
2018-05-21T02:12:10.009Z,2.80
2018-05-21T02:14:37.473Z,3.40
2018-05-21T02:17:04.969Z,3.00
2018-05-21T02:19:32.427Z,2.90
2018-05-21T02:21:59.932Z,2.60
2018-05-21T02:24:27.421Z,2.97
2018-05-21T02:26:55.638Z,2.10
2018-05-21T02:29:23.125Z,2.90
2018-05-21T02:31:50.686Z,3.13
2018-05-21T02:34:18.175Z,2.87
2018-05-21T02:36:46.407Z,3.40
2018-05-21T02:39:13.912Z,3.20
2018-05-21T02:41:42.151Z,3.37
2018-05-21T02:44:09.610Z,3.50
2018-05-21T02:46:37.868Z,3.00
2018-05-21T02:49:05.352Z,3.27
2018-05-21T02:51:32.808Z,3.30
2018-05-21T02:54:01.068Z,3.60
2018-05-21T02:56:28.795Z,2.80
2018-05-21T02:58:57.017Z,2.40
2018-05-21T03:01:24.504Z,3.80
2018-05-21T03:03:51.976Z,2.80
2018-05-21T03:06:20.191Z,2.40
2018-05-21T03:08:47.728Z,3.23
2018-05-21T03:11:15.205Z,2.80
2018-05-21T03:13:42.677Z,3.67
2018-05-21T03:16:10.147Z,3.40
2018-05-21T03:18:37.604Z,3.40
2018-05-21T03:21:05.070Z,2.67
2018-05-21T03:23:32.552Z,3.23
2018-05-21T03:26:00.808Z,3.13
2018-05-21T03:28:28.263Z,4.07
2018-05-21T03:30:55.745Z,3.13
2018-05-21T03:33:23.989Z,3.00
2018-05-21T03:35:51.443Z,3.37
2018-05-21T03:38:18.927Z,3.03
2018-05-21T03:40:46.567Z,2.87
2018-05-21T03:43:14.056Z,3.20
2018-05-21T03:45:41.548Z,2.80
2018-05-21T03:48:09.004Z,3.50
2018-05-21T03:50:36.456Z,3.63
2018-05-21T03:53:03.951Z,3.40
2018-05-21T03:55:31.423Z,3.90
2018-05-21T03:57:58.903Z,2.93
2018-05-21T04:00:38.020Z,3.17
2018-05-21T04:03:17.312Z,2.53
2018-05-21T04:05:44.750Z,3.50
2018-05-21T04:08:12.216Z,3.53
2018-05-21T04:10:39.704Z,3.13
2018-05-21T04:13:07.192Z,3.53
2018-05-21T04:15:34.675Z,3.40
2018-05-21T04:18:02.904Z,3.33
2018-05-21T04:20:30.415Z,3.03
2018-05-21T04:22:57.869Z,3.07
2018-05-21T04:25:26.108Z,2.77
2018-05-21T04:27:53.564Z,2.93
2018-05-21T04:30:21.075Z,2.40
2018-05-21T04:32:48.536Z,2.80
2018-05-21T04:35:16.030Z,2.87
2018-05-21T04:37:43.485Z,3.00
2018-05-21T04:40:10.941Z,3.00
2018-05-21T04:42:38.423Z,2.83
2018-05-21T04:45:05.872Z,3.30
2018-05-21T04:47:33.328Z,2.83
2018-05-21T04:50:00.904Z,2.93
2018-05-21T04:52:28.356Z,3.17
2018-05-21T04:54:55.813Z,3.10
2018-05-21T04:57:23.292Z,2.90
2018-05-21T04:59:50.749Z,2.67
2018-05-21T05:02:18.229Z,2.80
2018-05-21T05:04:46.485Z,3.10
2018-05-21T05:07:13.960Z,2.83
2018-05-21T05:09:42.192Z,2.50
2018-05-21T05:12:09.676Z,3.07
2018-05-21T05:14:37.135Z,2.97
2018-05-21T05:17:04.593Z,2.80
2018-05-21T05:19:32.090Z,2.83
2018-05-21T05:21:59.555Z,2.90
2018-05-21T05:24:27.036Z,2.50
2018-05-21T05:26:54.503Z,3.20
2018-05-21T05:29:21.985Z,3.40
2018-05-21T05:31:49.445Z,3.47
2018-05-21T05:34:16.911Z,2.80
2018-05-21T05:36:44.356Z,2.70
2018-05-21T05:39:11.832Z,2.87
2018-05-21T05:41:39.434Z,2.60
2018-05-21T05:44:06.992Z,3.37
2018-05-21T05:46:34.637Z,2.90
2018-05-21T05:49:02.179Z,2.97
2018-05-21T05:51:32.072Z,3.30
2018-05-21T05:53:59.539Z,3.37
2018-05-21T05:56:27.800Z,3.23
2018-05-21T05:58:55.254Z,2.63
2018-05-21T06:01:22.728Z,3.10
2018-05-21T06:03:50.193Z,3.40
2018-05-21T06:06:18.442Z,2.80
2018-05-21T06:08:45.956Z,3.03
2018-05-21T06:11:13.421Z,3.23
2018-05-21T06:13:40.870Z,3.00
2018-05-21T06:16:08.349Z,3.30
2018-05-21T06:18:35.825Z,3.30
2018-05-21T06:21:03.291Z,2.90
2018-05-21T06:23:30.744Z,3.07
2018-05-21T06:25:58.243Z,2.63
2018-05-21T06:28:25.707Z,3.53
2018-05-21T06:30:53.193Z,3.77
2018-05-21T06:33:20.657Z,2.90
2018-05-21T06:35:48.152Z,2.73
2018-05-21T06:38:15.687Z,3.37
2018-05-21T06:40:43.099Z,2.90
2018-05-21T06:43:10.746Z,3.10
2018-05-21T06:45:39.091Z,3.43
2018-05-21T06:48:06.988Z,3.20
2018-05-21T06:50:34.513Z,2.50
2018-05-21T06:53:02.731Z,3.53
2018-05-21T06:55:30.988Z,3.67
2018-05-21T06:57:58.448Z,3.50
2018-05-21T07:00:25.944Z,3.30
2018-05-21T07:02:53.471Z,2.80
2018-05-21T07:05:20.951Z,3.20
2018-05-21T07:07:49.176Z,3.87
2018-05-21T07:10:16.743Z,2.90
2018-05-21T07:12:44.215Z,3.03
2018-05-21T07:15:11.669Z,3.20
2018-05-21T07:17:39.145Z,3.90
2018-05-21T07:20:06.606Z,3.27
2018-05-21T07:22:34.120Z,3.30
2018-05-21T07:25:01.573Z,3.00
2018-05-21T07:27:29.052Z,3.27
2018-05-21T07:29:56.521Z,4.10
2018-05-21T07:32:24.012Z,2.63
2018-05-21T07:34:51.465Z,3.37
2018-05-21T07:37:19.719Z,3.80
2018-05-21T07:39:47.179Z,4.50
2018-05-21T07:42:14.660Z,4.03
2018-05-21T07:44:42.128Z,3.30
2018-05-21T07:47:09.584Z,4.30
2018-05-21T07:49:37.056Z,3.97
2018-05-21T07:52:04.571Z,3.97
2018-05-21T07:54:32.028Z,3.50
2018-05-21T07:56:59.497Z,3.37
2018-05-21T07:59:26.972Z,4.47
2018-05-21T08:01:55.212Z,3.67
2018-05-21T08:04:22.716Z,3.83
2018-05-21T08:06:50.172Z,3.77
2018-05-21T08:09:17.651Z,3.80
2018-05-21T08:11:45.128Z,3.80
2018-05-21T08:14:12.598Z,3.60
2018-05-21T08:16:40.055Z,3.73
2018-05-21T08:19:07.553Z,3.43
2018-05-21T08:21:35.012Z,4.03
2018-05-21T08:24:02.504Z,3.50
2018-05-21T08:26:30.010Z,3.33
2018-05-21T08:28:57.462Z,3.90
2018-05-21T08:31:24.932Z,3.87
2018-05-21T08:33:52.384Z,3.43
2018-05-21T08:36:19.872Z,3.90
2018-05-21T08:38:48.144Z,3.77
2018-05-21T08:41:16.388Z,3.37
2018-05-21T08:43:43.845Z,3.40
2018-05-21T08:46:11.320Z,3.53
2018-05-21T08:48:38.863Z,3.60
2018-05-21T08:51:07.031Z,3.37
2018-05-21T08:53:34.497Z,3.53
2018-05-21T08:56:01.979Z,3.97
2018-05-21T08:58:29.437Z,3.40
2018-05-21T09:00:56.913Z,3.97
2018-05-21T09:03:24.384Z,3.70
2018-05-21T09:05:51.877Z,4.37
2018-05-21T09:08:19.379Z,3.47
2018-05-21T09:10:46.860Z,4.17
2018-05-21T09:13:14.362Z,4.23
2018-05-21T09:15:41.811Z,3.43
2018-05-21T09:18:09.264Z,3.50
2018-05-21T09:20:36.761Z,3.57
2018-05-21T09:23:04.261Z,3.87
2018-05-21T09:25:31.740Z,3.30
2018-05-21T09:27:59.210Z,3.13
2018-05-21T09:30:26.687Z,3.40
2018-05-21T09:32:54.169Z,3.10
2018-05-21T09:35:21.624Z,4.10
2018-05-21T09:37:49.888Z,3.90
2018-05-21T09:40:17.344Z,4.07
2018-05-21T09:42:44.803Z,3.47
2018-05-21T09:45:12.287Z,3.40
2018-05-21T09:47:39.763Z,3.50
2018-05-21T09:50:07.208Z,3.50
2018-05-21T09:52:34.695Z,3.90
2018-05-21T09:55:02.199Z,3.30
2018-05-21T09:57:29.664Z,3.20
2018-05-21T09:59:57.273Z,3.90
2018-05-21T10:02:24.728Z,3.43
2018-05-21T10:04:52.370Z,2.90
2018-05-21T10:07:19.839Z,3.60
2018-05-21T10:09:47.320Z,3.67
2018-05-21T10:12:14.895Z,3.13
2018-05-21T10:14:42.274Z,2.87
2018-05-21T10:17:09.756Z,2.83
2018-05-21T10:19:37.236Z,2.87
2018-05-21T10:22:04.692Z,3.30
2018-05-21T10:24:32.192Z,3.10
2018-05-21T10:26:59.656Z,3.10
2018-05-21T10:29:27.141Z,2.37
2018-05-21T10:31:54.592Z,2.33
2018-05-21T10:34:22.837Z,3.50
2018-05-21T10:36:50.296Z,2.93
2018-05-21T10:39:17.767Z,2.60
2018-05-21T10:41:45.262Z,3.40
2018-05-21T10:44:12.772Z,3.77
2018-05-21T10:46:40.264Z,3.27
2018-05-21T10:49:07.728Z,3.37
2018-05-21T10:51:35.237Z,3.30
2018-05-21T10:54:02.708Z,3.80
2018-05-21T10:56:30.161Z,3.50
2018-05-21T10:58:57.660Z,2.93
2018-05-21T11:01:25.151Z,3.17
2018-05-21T11:03:52.623Z,3.87
2018-05-21T11:06:20.097Z,3.93
2018-05-21T11:08:47.581Z,3.27
2018-05-21T11:11:15.816Z,3.53
2018-05-21T11:13:43.295Z,3.80
2018-05-21T11:16:10.745Z,3.10
2018-05-21T11:18:38.236Z,4.07
2018-05-21T11:21:06.500Z,3.67
2018-05-21T11:23:33.955Z,3.97
2018-05-21T11:26:01.444Z,3.50
2018-05-21T11:28:29.152Z,3.40
2018-05-21T11:30:56.644Z,3.60
2018-05-21T11:33:24.129Z,3.00
2018-05-21T11:35:51.600Z,3.47
2018-05-21T11:38:19.072Z,3.67
2018-05-21T11:40:46.560Z,3.00
2018-05-21T11:43:14.036Z,3.40
2018-05-21T11:45:42.275Z,3.37
2018-05-21T11:48:09.740Z,3.40
2018-05-21T11:50:37.270Z,3.60
2018-05-21T11:53:04.718Z,3.87
2018-05-21T11:55:32.192Z,3.40
2018-05-21T11:57:59.783Z,3.23
2018-05-21T12:00:28.067Z,3.30
2018-05-21T12:02:55.517Z,2.80
2018-05-21T12:05:22.997Z,3.37
2018-05-21T12:07:50.480Z,3.80
2018-05-21T12:10:17.972Z,3.10
2018-05-21T12:12:45.452Z,3.10
2018-05-21T12:15:12.945Z,3.23
2018-05-21T12:17:41.176Z,3.17
2018-05-21T12:20:08.652Z,2.87
2018-05-21T12:22:36.108Z,3.53
2018-05-21T12:25:03.588Z,3.10
2018-05-21T12:27:31.829Z,3.17
2018-05-21T12:29:59.309Z,3.37
2018-05-21T12:32:26.764Z,3.63
2018-05-21T12:34:54.262Z,4.07
2018-05-21T12:37:21.725Z,3.37
2018-05-21T12:39:49.200Z,3.60
2018-05-21T12:42:16.663Z,3.40
2018-05-21T12:44:44.141Z,3.50
2018-05-21T12:47:11.628Z,2.57
2018-05-21T12:49:39.097Z,2.77
2018-05-21T12:52:07.343Z,2.80
2018-05-21T12:54:34.867Z,3.57
2018-05-21T12:57:02.638Z,3.50
2018-05-21T12:59:30.121Z,3.00
2018-05-21T13:01:57.593Z,2.67
2018-05-21T13:04:25.073Z,2.60
2018-05-21T13:06:53.312Z,2.80
2018-05-21T13:09:20.792Z,2.73
2018-05-21T13:11:48.246Z,3.17
2018-05-21T13:14:15.735Z,3.03
2018-05-21T13:16:43.235Z,3.30
2018-05-21T13:19:10.735Z,3.10
2018-05-21T13:21:38.974Z,3.40
2018-05-21T13:24:06.522Z,3.33
2018-05-21T13:26:34.842Z,3.37
2018-05-21T13:29:02.308Z,3.37
2018-05-21T13:31:29.816Z,3.00
2018-05-21T13:33:57.272Z,3.30
2018-05-21T13:36:24.742Z,2.47
2018-05-21T13:38:52.291Z,2.97
2018-05-21T13:41:19.711Z,2.97
2018-05-21T13:43:47.939Z,2.90
2018-05-21T13:46:16.176Z,3.50
2018-05-21T13:48:43.654Z,2.40
2018-05-21T13:51:11.107Z,2.80
2018-05-21T13:53:38.585Z,3.10
2018-05-21T13:56:06.040Z,2.60
2018-05-21T13:58:33.552Z,2.23
2018-05-21T14:01:01.833Z,3.27
2018-05-21T14:03:30.072Z,2.77
2018-05-21T14:05:57.533Z,2.50
2018-05-21T14:08:25.018Z,2.60
2018-05-21T14:10:53.327Z,2.40
2018-05-21T14:13:20.794Z,2.90
2018-05-21T14:15:48.277Z,2.17
2018-05-21T14:18:15.761Z,2.03
2018-05-21T14:20:43.240Z,1.97
2018-05-21T14:23:10.704Z,2.50
2018-05-21T14:25:38.193Z,2.60
2018-05-21T14:28:05.652Z,2.30
2018-05-21T14:30:33.123Z,2.40
2018-05-21T14:33:00.589Z,2.50
2018-05-21T14:35:28.074Z,1.90
2018-05-21T14:37:55.528Z,2.37
2018-05-21T14:40:22.997Z,2.23
2018-05-21T14:42:51.249Z,2.03
2018-05-21T14:45:18.744Z,2.07
2018-05-21T14:47:46.989Z,2.00
2018-05-21T14:50:14.501Z,2.60
2018-05-21T14:52:41.987Z,1.87
2018-05-21T14:55:09.449Z,1.80
2018-05-21T14:57:36.903Z,1.80
2018-05-21T15:00:05.164Z,1.70
2018-05-21T15:02:32.628Z,1.90
2018-05-21T15:05:00.104Z,2.20
2018-05-21T15:07:27.588Z,2.10
2018-05-21T15:09:55.073Z,2.10
2018-05-21T15:12:22.564Z,2.20
2018-05-21T15:14:50.033Z,1.90
2018-05-21T15:17:17.534Z,1.90
2018-05-21T15:19:45.047Z,2.43
2018-05-21T15:22:12.524Z,1.53
2018-05-21T15:24:40.012Z,2.00
2018-05-21T15:27:08.232Z,2.07
2018-05-21T15:29:35.713Z,1.80
2018-05-21T15:32:03.172Z,1.70
2018-05-21T15:34:30.673Z,2.30
2018-05-21T15:36:58.890Z,2.07
2018-05-21T15:39:26.412Z,2.00
2018-05-21T15:41:53.907Z,2.43
2018-05-21T15:44:21.352Z,2.50
2018-05-21T15:46:48.861Z,2.47
2018-05-21T15:49:16.309Z,2.00
2018-05-21T15:51:43.794Z,5.40
2018-05-21T15:54:11.303Z,2.77
2018-05-21T15:56:38.791Z,2.67
2018-05-21T15:59:06.284Z,2.87
2018-05-21T16:01:33.741Z,3.10
2018-05-21T16:04:01.223Z,2.60
2018-05-21T16:06:28.884Z,2.63
2018-05-21T16:08:56.428Z,2.80
2018-05-21T16:11:23.992Z,2.40
2018-05-21T16:13:51.739Z,3.73
2018-05-21T16:16:19.387Z,2.90
2018-05-21T16:18:46.905Z,2.87
2018-05-21T16:21:15.469Z,3.00
2018-05-21T16:23:43.229Z,2.63
2018-05-21T16:26:10.967Z,3.67
2018-05-21T16:28:38.571Z,2.50
2018-05-21T16:31:06.263Z,6.97
2018-05-21T16:33:33.839Z,15.20
2018-05-21T16:36:02.151Z,14.37
2018-05-21T16:38:29.608Z,4.83
2018-05-21T16:40:57.089Z,2.90
2018-05-21T16:43:24.550Z,3.20
2018-05-21T16:45:52.028Z,3.07
2018-05-21T16:48:19.488Z,3.00
2018-05-21T16:50:47.005Z,3.13
2018-05-21T16:53:14.480Z,2.70
2018-05-21T16:55:41.951Z,2.87
2018-05-21T16:58:09.539Z,3.17
2018-05-21T17:00:36.992Z,3.13
2018-05-21T17:03:04.456Z,2.83
2018-05-21T17:05:31.928Z,3.20
2018-05-21T17:08:00.147Z,3.10
2018-05-21T17:10:27.629Z,2.90
2018-05-21T17:12:55.089Z,2.83
2018-05-21T17:15:22.563Z,2.93
2018-05-21T17:17:50.034Z,3.03
2018-05-21T17:20:17.602Z,3.30
2018-05-21T17:22:44.999Z,3.27
2018-05-21T17:25:12.469Z,3.93
2018-05-21T17:27:40.002Z,2.90
2018-05-21T17:30:07.469Z,2.60
2018-05-21T17:32:34.932Z,2.80
2018-05-21T17:35:02.433Z,3.10
2018-05-21T17:37:29.888Z,3.20
2018-05-21T17:39:57.377Z,3.00
2018-05-21T17:42:25.680Z,2.60
2018-05-21T17:44:53.096Z,2.53
2018-05-21T17:47:20.556Z,2.60
2018-05-21T17:49:48.083Z,2.47
2018-05-21T17:52:15.535Z,3.20
2018-05-21T17:54:43.020Z,2.60
2018-05-21T17:57:10.503Z,2.20
2018-05-21T17:59:38.043Z,2.80
2018-05-21T18:02:05.541Z,3.17
2018-05-21T18:04:33.010Z,2.80
2018-05-21T18:07:00.487Z,2.80
2018-05-21T18:09:27.973Z,2.63
2018-05-21T18:11:55.451Z,2.80
2018-05-21T18:14:22.904Z,2.77
2018-05-21T18:19:24.364Z,2.40
2018-05-21T18:21:51.826Z,2.40
2018-05-21T18:24:20.160Z,2.97
2018-05-21T18:26:47.671Z,2.57
2018-05-21T18:29:15.243Z,2.70
2018-05-21T18:31:43.510Z,3.97
2018-05-21T18:34:11.740Z,2.63
2018-05-21T18:36:39.277Z,2.90
2018-05-21T18:39:06.788Z,3.13
2018-05-21T18:41:34.280Z,3.20
2018-05-21T18:44:01.893Z,2.93
2018-05-21T18:46:29.543Z,2.70
2018-05-21T18:48:57.053Z,2.97
2018-05-21T18:51:24.520Z,2.80
2018-05-21T18:53:52.074Z,2.50
2018-05-21T18:56:19.684Z,2.50
2018-05-21T18:58:47.501Z,2.27
2018-05-21T19:01:15.007Z,2.70
2018-05-21T19:03:42.653Z,2.70
2018-05-21T19:06:10.984Z,2.50
2018-05-21T19:08:38.752Z,3.27
2018-05-21T19:11:06.283Z,3.00
2018-05-21T19:13:33.748Z,3.33
2018-05-21T19:16:01.345Z,2.83
2018-05-21T19:18:29.082Z,3.00
2018-05-21T19:20:56.696Z,3.37
2018-05-21T19:23:24.260Z,2.43
2018-05-21T19:25:51.828Z,3.07
2018-05-21T19:28:19.378Z,2.73
2018-05-21T19:30:47.014Z,2.80
2018-05-21T19:33:14.583Z,3.00
2018-05-21T19:35:42.232Z,2.80
2018-05-21T19:38:10.232Z,2.87
2018-05-21T19:40:37.809Z,2.80
2018-05-21T19:43:05.280Z,2.80
2018-05-21T19:45:32.912Z,2.73
2018-05-21T19:48:00.360Z,2.70
2018-05-21T19:50:28.067Z,2.87
2018-05-21T19:52:56.343Z,3.00
2018-05-21T19:55:23.827Z,3.17
2018-05-21T19:57:51.559Z,3.40
2018-05-21T20:00:19.245Z,2.70
2018-05-21T20:02:46.768Z,2.80
2018-05-21T20:05:14.399Z,2.70
2018-05-21T20:07:41.965Z,3.00
2018-05-21T20:10:10.268Z,2.80
2018-05-21T20:12:37.982Z,2.40
2018-05-21T20:15:05.547Z,3.13
2018-05-21T20:17:33.161Z,2.30
2018-05-21T20:20:00.839Z,2.67
2018-05-21T20:22:28.321Z,3.50
2018-05-21T20:24:55.816Z,2.83
2018-05-21T20:27:23.302Z,2.90
2018-05-21T20:29:50.761Z,2.90
2018-05-21T20:32:18.246Z,3.30
2018-05-21T20:34:45.721Z,2.70
2018-05-21T20:37:13.295Z,3.30
2018-05-21T20:39:40.863Z,2.77
2018-05-21T20:42:09.076Z,2.90
2018-05-21T20:44:36.551Z,2.80
2018-05-21T20:47:04.033Z,2.17
2018-05-21T20:49:31.516Z,3.50
2018-05-21T20:51:58.989Z,3.00
2018-05-21T20:54:26.468Z,3.20
2018-05-21T20:56:53.953Z,3.60
2018-05-21T20:59:21.441Z,2.73
2018-05-21T21:01:49.687Z,3.00
2018-05-21T21:04:17.145Z,3.07
2018-05-21T21:06:44.767Z,3.00
2018-05-21T21:09:12.240Z,3.40
2018-05-21T21:11:39.728Z,2.70
2018-05-21T21:14:07.196Z,3.10
2018-05-21T21:16:34.672Z,3.23
2018-05-21T21:19:02.954Z,3.00
2018-05-21T21:21:31.216Z,2.77
2018-05-21T21:23:59.439Z,2.93
2018-05-21T21:26:26.915Z,3.00
2018-05-21T21:28:54.434Z,2.80
2018-05-21T21:31:21.886Z,2.57
2018-05-21T21:33:50.112Z,3.40
2018-05-21T21:36:17.612Z,2.93
2018-05-21T21:38:45.836Z,2.97
2018-05-21T21:41:14.050Z,2.70
2018-05-21T21:43:41.559Z,2.90
2018-05-21T21:46:09.030Z,2.90
2018-05-21T21:48:36.513Z,3.30
2018-05-21T21:51:03.997Z,3.57
2018-05-21T21:53:32.241Z,3.43
2018-05-21T21:55:59.714Z,3.30
2018-05-21T21:58:27.225Z,3.30
2018-05-21T22:00:54.696Z,3.10
2018-05-21T22:03:22.180Z,3.17
2018-05-21T22:05:49.663Z,3.30
2018-05-21T22:08:17.153Z,2.77
2018-05-21T22:10:44.705Z,2.83
2018-05-21T22:13:12.187Z,2.80
2018-05-21T22:15:39.664Z,3.00
2018-05-21T22:18:07.124Z,3.60
2018-05-21T22:20:34.626Z,2.90
2018-05-21T22:23:02.088Z,3.50
2018-05-21T22:25:29.550Z,3.13
2018-05-21T22:27:57.030Z,2.93
2018-05-21T22:30:24.520Z,3.17
2018-05-21T22:32:52.000Z,3.00
2018-05-21T22:35:20.241Z,3.33
2018-05-21T22:37:47.777Z,3.90
2018-05-21T22:40:15.242Z,3.80
2018-05-21T22:42:42.722Z,3.47
2018-05-21T22:45:10.227Z,3.63
2018-05-21T22:47:37.704Z,4.00
2018-05-21T22:50:05.179Z,4.40
2018-05-21T22:52:32.680Z,4.63
2018-05-21T22:55:00.131Z,4.37
2018-05-21T22:57:27.624Z,5.00
2018-05-21T22:59:55.870Z,5.00
2018-05-21T23:02:23.328Z,5.63
2018-05-21T23:04:50.800Z,4.87
2018-05-21T23:07:18.293Z,4.60
2018-05-21T23:09:45.840Z,6.10
2018-05-21T23:12:14.136Z,5.27
2018-05-21T23:14:41.591Z,5.13
2018-05-21T23:17:09.043Z,4.93
2018-05-21T23:19:36.519Z,5.53
2018-05-21T23:22:04.015Z,5.40
2018-05-21T23:24:31.481Z,5.87
2018-05-21T23:26:58.965Z,5.53
2018-05-21T23:29:26.506Z,4.93
2018-05-21T23:31:54.751Z,7.13
2018-05-21T23:34:22.222Z,6.83
2018-05-21T23:36:49.704Z,6.93
2018-05-21T23:39:18.085Z,7.43
2018-05-21T23:41:46.320Z,7.07
2018-05-21T23:44:13.799Z,7.13
2018-05-21T23:46:41.280Z,6.70
2018-05-21T23:49:09.524Z,6.43
2018-05-21T23:51:36.989Z,7.10
2018-05-21T23:54:04.484Z,6.60
2018-05-21T23:56:32.704Z,7.43
2018-05-21T23:59:00.189Z,6.70
